createdAt,value
2017-12-16T00:00:28.048Z,12.25
2017-12-16T00:02:55.573Z,12.40
2017-12-16T00:05:23.024Z,11.27
2017-12-16T00:07:50.484Z,12.65
2017-12-16T00:10:17.954Z,12.00
2017-12-16T00:12:45.413Z,12.10
2017-12-16T00:15:12.871Z,14.25
2017-12-16T00:17:40.348Z,12.85
2017-12-16T00:20:07.813Z,13.13
2017-12-16T00:22:35.274Z,14.45
2017-12-16T00:25:02.736Z,15.90
2017-12-16T00:27:30.180Z,14.57
2017-12-16T00:29:57.634Z,15.30
2017-12-16T00:32:25.110Z,15.15
2017-12-16T00:34:52.576Z,16.48
2017-12-16T00:37:20.045Z,16.83
2017-12-16T00:39:47.507Z,17.23
2017-12-16T00:42:14.957Z,15.80
2017-12-16T00:44:42.430Z,16.70
2017-12-16T00:47:09.900Z,15.63
2017-12-16T00:49:37.345Z,15.05
2017-12-16T00:52:04.812Z,14.43
2017-12-16T00:54:32.273Z,13.23
2017-12-16T00:56:59.730Z,13.77
2017-12-16T00:59:27.207Z,13.45
2017-12-16T01:01:54.698Z,13.62
2017-12-16T01:04:22.158Z,14.52
2017-12-16T01:06:49.624Z,13.00
2017-12-16T01:09:17.081Z,15.82
2017-12-16T01:11:44.533Z,14.73
2017-12-16T01:14:12.006Z,14.00
2017-12-16T01:16:39.472Z,14.75
2017-12-16T01:19:06.929Z,14.87
2017-12-16T01:21:34.401Z,14.50
2017-12-16T01:24:01.857Z,17.70
2017-12-16T01:26:29.304Z,16.00
2017-12-16T01:28:56.772Z,16.50
2017-12-16T01:31:24.233Z,16.98
2017-12-16T01:34:03.397Z,17.42
2017-12-16T01:50:02.483Z,19.15
2017-12-16T01:52:29.996Z,19.62
2017-12-16T01:54:57.453Z,17.92
2017-12-16T01:57:24.933Z,19.15
2017-12-16T01:59:52.385Z,18.55
2017-12-16T02:02:19.849Z,17.30
2017-12-16T02:04:47.317Z,17.20
2017-12-16T02:07:14.772Z,19.05
2017-12-16T02:09:42.245Z,19.77
2017-12-16T02:12:09.696Z,17.62
2017-12-16T02:14:37.140Z,17.27
2017-12-16T02:17:04.608Z,16.87
2017-12-16T02:19:32.110Z,17.98
2017-12-16T02:21:59.561Z,16.40
2017-12-16T02:24:27.025Z,16.73
2017-12-16T02:26:54.484Z,17.77
2017-12-16T02:29:21.953Z,15.68
2017-12-16T02:31:49.424Z,15.35
2017-12-16T02:34:16.880Z,14.25
2017-12-16T02:36:44.351Z,13.30
2017-12-16T02:39:11.822Z,13.77
2017-12-16T02:41:39.276Z,12.75
2017-12-16T02:44:06.737Z,12.65
2017-12-16T02:46:34.192Z,11.80
2017-12-16T02:49:01.693Z,11.80
2017-12-16T02:51:29.176Z,12.35
2017-12-16T02:53:56.630Z,12.48
2017-12-16T02:56:24.110Z,13.20
2017-12-16T02:58:51.565Z,13.35
2017-12-16T03:01:19.026Z,11.75
2017-12-16T03:03:46.525Z,10.80
2017-12-16T03:06:13.969Z,9.40
2017-12-16T03:08:41.417Z,8.88
2017-12-16T03:11:08.881Z,8.55
2017-12-16T03:13:36.333Z,9.27
2017-12-16T03:16:03.781Z,9.02
2017-12-16T03:18:31.258Z,8.15
2017-12-16T03:20:58.709Z,8.20
2017-12-16T03:23:26.161Z,8.57
2017-12-16T03:25:53.620Z,9.73
2017-12-16T03:28:21.068Z,8.20
2017-12-16T03:30:48.526Z,9.63
2017-12-16T03:33:15.994Z,9.15
2017-12-16T03:35:43.444Z,10.35
2017-12-16T03:38:10.901Z,10.07
2017-12-16T03:40:38.376Z,8.93
2017-12-16T03:43:05.843Z,9.73
2017-12-16T03:45:33.292Z,10.48
2017-12-16T03:48:00.756Z,9.68
2017-12-16T03:50:28.210Z,10.02
2017-12-16T03:52:55.667Z,10.07
2017-12-16T03:55:23.136Z,10.60
2017-12-16T03:57:50.593Z,10.10
2017-12-16T04:00:18.053Z,10.45
2017-12-16T04:02:45.538Z,11.68
2017-12-16T04:05:12.988Z,12.20
2017-12-16T04:07:40.448Z,12.57
2017-12-16T04:10:07.925Z,11.65
2017-12-16T04:12:35.381Z,12.57
2017-12-16T04:15:02.832Z,13.98
2017-12-16T04:17:31.137Z,12.93
2017-12-16T04:19:58.621Z,15.05
2017-12-16T04:22:26.081Z,14.63
2017-12-16T04:24:53.559Z,14.55
2017-12-16T04:27:21.021Z,14.85
2017-12-16T04:29:48.474Z,15.75
2017-12-16T04:32:15.948Z,17.12
2017-12-16T04:34:43.405Z,15.27
2017-12-16T04:37:10.874Z,14.90
2017-12-16T04:39:38.349Z,15.10
2017-12-16T04:42:05.814Z,13.70
2017-12-16T04:44:33.268Z,11.80
2017-12-16T04:47:00.790Z,12.27
2017-12-16T04:49:28.238Z,13.98
2017-12-16T04:51:55.696Z,11.80
2017-12-16T04:54:23.162Z,11.30
2017-12-16T04:56:50.627Z,11.68
2017-12-16T04:59:18.088Z,11.50
2017-12-16T05:01:45.553Z,11.20
2017-12-16T05:04:13.013Z,10.60
2017-12-16T05:06:40.469Z,11.05
2017-12-16T05:09:07.953Z,10.18
2017-12-16T05:11:35.408Z,11.80
2017-12-16T05:14:02.861Z,13.35
2017-12-16T05:16:30.333Z,11.55
2017-12-16T05:18:57.788Z,11.07
2017-12-16T05:21:25.236Z,10.40
2017-12-16T05:23:52.708Z,10.90
2017-12-16T05:26:20.170Z,10.55
2017-12-16T05:28:47.633Z,10.85
2017-12-16T05:31:15.113Z,10.10
2017-12-16T05:33:42.575Z,10.93
2017-12-16T05:36:10.025Z,11.45
2017-12-16T05:38:37.493Z,10.75
2017-12-16T05:41:04.962Z,10.95
2017-12-16T05:43:32.424Z,11.30
2017-12-16T05:45:59.901Z,10.48
2017-12-16T05:48:27.352Z,11.52
2017-12-16T05:50:54.813Z,12.15
2017-12-16T05:53:22.284Z,12.65
2017-12-16T05:55:49.740Z,10.90
2017-12-16T05:58:17.196Z,10.20
2017-12-16T06:00:44.679Z,11.52
2017-12-16T06:03:12.132Z,11.38
2017-12-16T06:05:39.589Z,11.18
2017-12-16T06:08:07.060Z,10.80
2017-12-16T06:10:34.521Z,12.05
2017-12-16T06:13:01.982Z,11.20
2017-12-16T06:15:29.457Z,10.98
2017-12-16T06:17:56.912Z,10.48
2017-12-16T06:20:24.356Z,9.85
2017-12-16T06:22:51.824Z,10.10
2017-12-16T06:25:19.327Z,10.10
2017-12-16T06:27:46.748Z,10.50
2017-12-16T06:30:14.221Z,10.07
2017-12-16T06:32:41.677Z,10.82
2017-12-16T06:35:09.136Z,10.70
2017-12-16T06:37:36.609Z,11.20
2017-12-16T06:40:04.069Z,11.45
2017-12-16T06:42:31.521Z,12.15
2017-12-16T06:44:58.988Z,12.43
2017-12-16T06:47:26.436Z,12.32
2017-12-16T06:49:53.897Z,13.45
2017-12-16T06:52:21.373Z,14.00
2017-12-16T06:54:48.828Z,13.30
2017-12-16T06:57:16.289Z,13.57
2017-12-16T06:59:43.766Z,12.43
2017-12-16T07:02:11.217Z,12.90
2017-12-16T07:04:38.673Z,14.30
2017-12-16T07:07:06.140Z,13.52
2017-12-16T07:09:33.597Z,13.80
2017-12-16T07:12:01.057Z,13.85
2017-12-16T07:14:28.524Z,14.15
2017-12-16T07:16:55.976Z,15.00
2017-12-16T07:19:23.425Z,13.48
2017-12-16T07:21:50.888Z,17.27
2017-12-16T07:24:18.345Z,15.82
2017-12-16T07:26:45.797Z,15.75
2017-12-16T07:29:13.260Z,15.55
2017-12-16T07:31:40.714Z,15.73
2017-12-16T07:34:08.196Z,14.10
2017-12-16T07:36:35.664Z,15.27
2017-12-16T07:39:03.121Z,16.10
2017-12-16T07:41:30.578Z,15.18
2017-12-16T07:43:58.050Z,16.37
2017-12-16T07:46:25.505Z,16.33
2017-12-16T07:48:52.953Z,17.85
2017-12-16T07:51:20.425Z,19.15
2017-12-16T07:53:47.880Z,20.08
2017-12-16T07:56:15.334Z,20.45
2017-12-16T07:58:42.797Z,22.37
2017-12-16T08:01:10.245Z,21.30
2017-12-16T08:03:37.693Z,20.00
2017-12-16T08:06:05.161Z,21.85
2017-12-16T08:08:32.617Z,22.00
2017-12-16T08:11:00.073Z,20.55
2017-12-16T08:13:27.539Z,19.85
2017-12-16T08:15:54.989Z,18.30
2017-12-16T08:18:22.436Z,18.08
2017-12-16T08:20:49.909Z,16.58
2017-12-16T08:23:17.361Z,17.62
2017-12-16T08:25:44.813Z,18.48
2017-12-16T08:28:12.271Z,17.33
2017-12-16T08:30:39.719Z,16.67
2017-12-16T08:33:07.175Z,19.17
2017-12-16T08:35:34.641Z,17.42
2017-12-16T08:38:02.097Z,16.52
2017-12-16T08:40:29.558Z,19.15
2017-12-16T08:42:57.021Z,16.52
2017-12-16T08:45:24.478Z,16.55
2017-12-16T08:47:51.932Z,18.70
2017-12-16T08:50:19.396Z,17.23
2017-12-16T08:52:46.850Z,16.92
2017-12-16T08:55:14.309Z,17.98
2017-12-16T08:57:41.778Z,18.27
2017-12-16T09:00:09.229Z,17.77
2017-12-16T09:02:36.685Z,17.00
2017-12-16T09:05:04.160Z,16.98
2017-12-16T09:07:31.617Z,16.85
2017-12-16T09:09:59.068Z,16.95
2017-12-16T09:12:26.533Z,16.17
2017-12-16T09:14:53.981Z,19.08
2017-12-16T09:17:21.434Z,17.77
2017-12-16T09:19:48.906Z,17.62
2017-12-16T09:22:16.352Z,16.80
2017-12-16T09:24:43.805Z,17.77
2017-12-16T09:27:11.278Z,18.23
2017-12-16T09:29:38.732Z,17.83
2017-12-16T09:32:06.180Z,19.10
2017-12-16T09:34:33.681Z,18.23
2017-12-16T09:37:01.117Z,17.80
2017-12-16T09:39:28.569Z,18.05
2017-12-16T09:41:56.036Z,18.70
2017-12-16T09:44:23.493Z,18.92
2017-12-16T09:46:50.950Z,18.77
2017-12-16T09:49:18.412Z,20.50
2017-12-16T09:51:45.860Z,20.80
2017-12-16T09:54:13.312Z,22.13
2017-12-16T09:56:40.773Z,23.83
2017-12-16T09:59:08.228Z,23.05
2017-12-16T10:01:35.684Z,24.20
2017-12-16T10:04:03.157Z,24.85
2017-12-16T10:06:30.614Z,24.50
2017-12-16T10:08:58.073Z,25.88
2017-12-16T10:11:25.541Z,27.67
2017-12-16T10:13:52.984Z,27.60
2017-12-16T10:16:20.440Z,26.87
2017-12-16T10:18:47.918Z,27.45
2017-12-16T10:21:15.373Z,29.12
2017-12-16T10:23:42.825Z,32.38
2017-12-16T10:26:10.296Z,31.98
2017-12-16T10:28:37.748Z,32.92
2017-12-16T10:31:05.204Z,33.38
2017-12-16T10:33:32.671Z,34.45
2017-12-16T10:36:00.121Z,35.40
2017-12-16T10:38:27.572Z,37.90
2017-12-16T10:40:55.040Z,37.47
2017-12-16T10:43:22.501Z,35.65
2017-12-16T10:45:49.961Z,38.28
2017-12-16T10:48:17.429Z,38.00
2017-12-16T10:50:44.881Z,36.55
2017-12-16T10:53:12.339Z,36.40
2017-12-16T10:55:39.817Z,37.55
2017-12-16T10:58:07.276Z,39.53
2017-12-16T11:00:34.736Z,42.10
2017-12-16T11:03:02.212Z,36.67
2017-12-16T11:05:29.661Z,39.15
2017-12-16T11:07:57.121Z,36.13
2017-12-16T11:10:24.591Z,31.83
2017-12-16T11:12:52.053Z,34.25
2017-12-16T11:15:19.505Z,36.20
2017-12-16T11:17:46.977Z,37.38
2017-12-16T11:20:14.428Z,35.75
2017-12-16T11:22:41.889Z,34.08
2017-12-16T11:25:09.353Z,31.65
2017-12-16T11:27:36.804Z,35.67
2017-12-16T11:30:04.266Z,35.90
2017-12-16T11:32:31.749Z,38.17
2017-12-16T11:34:59.209Z,36.15
2017-12-16T11:37:26.674Z,36.10
2017-12-16T11:39:54.227Z,36.22
2017-12-16T11:42:21.742Z,37.33
2017-12-16T11:44:49.148Z,37.58
2017-12-16T11:47:16.613Z,36.90
2017-12-16T11:49:44.097Z,37.03
2017-12-16T11:52:11.566Z,34.38
2017-12-16T11:54:39.042Z,34.03
2017-12-16T11:57:06.496Z,35.45
2017-12-16T11:59:33.975Z,34.83
2017-12-16T12:02:01.432Z,34.80
2017-12-16T12:04:28.889Z,31.02
2017-12-16T12:06:56.366Z,34.15
2017-12-16T12:09:23.825Z,35.88
2017-12-16T12:11:51.287Z,33.83
2017-12-16T12:14:18.765Z,33.40
2017-12-16T12:16:46.216Z,30.25
2017-12-16T12:19:13.669Z,30.55
2017-12-16T12:21:41.145Z,30.75
2017-12-16T12:24:08.605Z,27.80
2017-12-16T12:26:36.074Z,28.27
2017-12-16T12:29:03.559Z,27.48
2017-12-16T12:31:31.025Z,27.65
2017-12-16T12:33:58.482Z,27.25
2017-12-16T12:36:25.959Z,28.10
2017-12-16T12:38:53.421Z,29.90
2017-12-16T12:41:20.899Z,26.98
2017-12-16T12:43:48.367Z,28.08
2017-12-16T12:46:15.825Z,23.77
2017-12-16T12:48:43.286Z,25.58
2017-12-16T12:51:10.757Z,24.60
2017-12-16T12:53:38.222Z,26.12
2017-12-16T12:56:05.676Z,21.17
2017-12-16T12:58:33.149Z,23.30
2017-12-16T13:01:00.610Z,21.65
2017-12-16T13:03:28.068Z,22.83
2017-12-16T13:05:55.536Z,23.52
2017-12-16T13:08:22.989Z,25.20
2017-12-16T13:10:50.445Z,24.40
2017-12-16T13:13:17.926Z,23.65
2017-12-16T13:15:45.385Z,23.90
2017-12-16T13:18:12.840Z,23.70
2017-12-16T13:20:40.308Z,22.23
2017-12-16T13:23:07.764Z,24.17
2017-12-16T13:25:35.222Z,23.33
2017-12-16T13:28:02.684Z,20.92
2017-12-16T13:30:30.200Z,20.52
2017-12-16T13:32:57.623Z,22.40
2017-12-16T13:35:25.093Z,21.08
2017-12-16T13:37:52.548Z,19.75
2017-12-16T13:40:20.002Z,21.40
2017-12-16T13:42:47.480Z,18.73
2017-12-16T13:45:14.936Z,19.00
2017-12-16T13:47:42.395Z,16.00
2017-12-16T13:50:09.868Z,19.58
2017-12-16T13:52:37.321Z,19.12
2017-12-16T13:55:04.777Z,19.05
2017-12-16T13:57:32.256Z,20.30
2017-12-16T13:59:59.725Z,17.87
2017-12-16T14:02:27.186Z,19.58
2017-12-16T14:04:54.654Z,18.77
2017-12-16T14:07:22.116Z,19.58
2017-12-16T14:09:49.585Z,19.42
2017-12-16T14:12:17.066Z,19.20
2017-12-16T14:14:44.521Z,20.00
2017-12-16T14:17:11.981Z,20.17
2017-12-16T14:19:39.458Z,24.35
2017-12-16T14:22:06.914Z,20.20
2017-12-16T14:24:34.369Z,19.85
2017-12-16T14:27:01.845Z,22.60
2017-12-16T14:29:29.296Z,21.35
2017-12-16T14:31:56.752Z,21.75
2017-12-16T14:34:24.221Z,23.70
2017-12-16T14:36:51.672Z,24.58
2017-12-16T14:39:19.129Z,20.65
2017-12-16T14:41:46.601Z,22.25
2017-12-16T14:44:14.073Z,22.52
2017-12-16T14:46:41.529Z,21.92
2017-12-16T14:49:09.000Z,22.85
2017-12-16T14:51:36.453Z,22.20
2017-12-16T14:54:03.911Z,24.20
2017-12-16T14:56:31.386Z,21.33
2017-12-16T14:58:58.840Z,21.98
2017-12-16T15:01:26.306Z,20.23
2017-12-16T15:03:53.774Z,20.25
2017-12-16T15:06:21.232Z,17.98
2017-12-16T15:08:48.741Z,16.83
2017-12-16T15:11:16.206Z,16.12
2017-12-16T15:13:43.665Z,18.48
2017-12-16T15:16:11.136Z,18.92
2017-12-16T15:18:38.585Z,17.20
2017-12-16T15:21:06.053Z,17.65
2017-12-16T15:23:33.525Z,17.80
2017-12-16T15:26:00.982Z,20.62
2017-12-16T15:28:28.440Z,18.67
2017-12-16T15:30:55.920Z,19.27
2017-12-16T15:33:23.377Z,17.90
2017-12-16T15:35:50.835Z,19.95
2017-12-16T15:38:18.312Z,19.55
2017-12-16T15:40:45.777Z,20.48
2017-12-16T15:43:13.245Z,19.83
2017-12-16T15:45:40.705Z,22.10
2017-12-16T15:48:08.153Z,21.33
2017-12-16T15:50:35.621Z,20.98
2017-12-16T15:53:03.081Z,22.55
2017-12-16T15:55:30.541Z,20.88
2017-12-16T15:57:58.013Z,23.48
2017-12-16T16:00:25.474Z,23.00
2017-12-16T16:02:52.936Z,24.98
2017-12-16T16:05:20.409Z,24.45
2017-12-16T16:07:47.862Z,25.27
2017-12-16T16:10:15.308Z,25.05
2017-12-16T16:12:42.777Z,25.92
2017-12-16T16:15:10.237Z,25.62
2017-12-16T16:17:37.699Z,26.05
2017-12-16T16:20:05.164Z,28.00
2017-12-16T16:22:32.621Z,27.48
2017-12-16T16:25:00.072Z,27.48
2017-12-16T16:27:27.537Z,26.67
2017-12-16T16:29:54.988Z,27.25
2017-12-16T16:32:22.432Z,26.92
2017-12-16T16:34:49.897Z,27.55
2017-12-16T16:37:17.349Z,29.23
2017-12-16T16:39:44.813Z,28.05
2017-12-16T16:42:12.281Z,28.85
2017-12-16T16:44:39.736Z,29.50
2017-12-16T16:47:07.188Z,28.15
2017-12-16T16:49:34.660Z,30.52
2017-12-16T16:52:02.147Z,30.90
2017-12-16T16:54:29.570Z,28.95
2017-12-16T16:56:57.041Z,29.98
2017-12-16T16:59:24.501Z,28.95
2017-12-16T17:01:51.958Z,28.33
2017-12-16T17:04:19.424Z,27.08
2017-12-16T17:06:46.876Z,25.98
2017-12-16T17:09:14.330Z,25.85
2017-12-16T17:11:41.792Z,27.37
2017-12-16T17:14:09.244Z,27.20
2017-12-16T17:16:36.696Z,25.52
2017-12-16T17:19:04.199Z,23.15
2017-12-16T17:21:31.665Z,24.48
2017-12-16T17:23:59.121Z,23.85
2017-12-16T17:26:26.598Z,22.20
2017-12-16T17:28:54.059Z,20.92
2017-12-16T17:31:21.516Z,19.52
2017-12-16T17:33:49.022Z,19.87
2017-12-16T17:36:16.473Z,19.10
2017-12-16T17:38:43.921Z,19.92
2017-12-16T17:41:11.398Z,22.37
2017-12-16T17:43:38.885Z,21.58
2017-12-16T17:46:06.349Z,20.48
2017-12-16T17:48:33.825Z,18.52
2017-12-16T17:51:01.292Z,20.02
2017-12-16T17:53:28.753Z,21.17
2017-12-16T17:55:56.208Z,21.02
2017-12-16T17:58:23.660Z,21.23
2017-12-16T18:00:51.125Z,20.98
2017-12-16T18:03:18.601Z,21.52
2017-12-16T18:05:46.058Z,20.92
2017-12-16T18:08:13.533Z,19.70
2017-12-16T18:10:40.991Z,19.98
2017-12-16T18:13:08.445Z,17.80
2017-12-16T18:15:35.909Z,17.42
2017-12-16T18:18:03.366Z,19.25
2017-12-16T18:20:30.816Z,16.27
2017-12-16T18:22:58.284Z,16.58
2017-12-16T18:25:25.738Z,17.50
2017-12-16T18:27:53.186Z,16.73
2017-12-16T18:30:20.649Z,16.52
2017-12-16T18:32:48.125Z,16.90
2017-12-16T18:35:15.599Z,16.42
2017-12-16T18:37:43.056Z,17.48
2017-12-16T18:40:10.509Z,16.40
2017-12-16T18:42:37.977Z,16.15
2017-12-16T18:45:05.425Z,15.50
2017-12-16T18:47:32.934Z,15.25
2017-12-16T18:50:00.401Z,16.70
2017-12-16T18:52:27.872Z,16.05
2017-12-16T18:54:55.346Z,20.80
2017-12-16T18:57:22.809Z,17.80
2017-12-16T18:59:50.269Z,17.42
2017-12-16T19:02:17.728Z,18.85
2017-12-16T19:04:45.193Z,18.30
2017-12-16T19:07:12.722Z,17.73
2017-12-16T19:09:40.181Z,21.20
2017-12-16T19:12:07.644Z,18.20
2017-12-16T19:14:35.103Z,18.45
2017-12-16T19:17:02.556Z,19.27
2017-12-16T19:19:30.029Z,18.80
2017-12-16T19:21:57.489Z,18.08
2017-12-16T19:24:24.949Z,18.52
2017-12-16T19:26:52.410Z,21.80
2017-12-16T19:29:19.881Z,24.67
2017-12-16T19:31:47.341Z,22.35
2017-12-16T19:34:14.852Z,21.98
2017-12-16T19:36:42.317Z,22.20
2017-12-16T19:39:09.785Z,23.30
2017-12-16T19:41:37.241Z,19.42
2017-12-16T19:44:04.709Z,20.77
2017-12-16T19:46:32.183Z,19.35
2017-12-16T19:48:59.654Z,19.67
2017-12-16T19:51:27.116Z,18.85
2017-12-16T19:53:54.584Z,20.75
2017-12-16T19:56:22.043Z,20.40
2017-12-16T19:58:49.492Z,19.10
2017-12-16T20:01:16.961Z,20.73
2017-12-16T20:03:44.420Z,19.10
2017-12-16T20:06:11.885Z,19.15
2017-12-16T20:08:39.353Z,20.77
2017-12-16T20:11:06.813Z,18.77
2017-12-16T20:13:34.296Z,21.83
2017-12-16T20:16:01.749Z,19.77
2017-12-16T20:18:29.210Z,20.08
2017-12-16T20:20:56.672Z,20.77
2017-12-16T20:23:24.134Z,19.90
2017-12-16T20:25:51.585Z,20.45
2017-12-16T20:28:19.072Z,22.62
2017-12-16T20:30:46.520Z,21.50
2017-12-16T20:33:13.968Z,20.70
2017-12-16T20:35:41.437Z,20.67
2017-12-16T20:38:08.888Z,19.80
2017-12-16T20:40:36.341Z,20.12
2017-12-16T20:43:03.802Z,20.95
2017-12-16T20:45:31.265Z,20.83
2017-12-16T20:47:58.716Z,20.08
2017-12-16T20:50:26.185Z,21.33
2017-12-16T20:52:53.641Z,19.60
2017-12-16T20:55:21.093Z,21.55
2017-12-16T20:57:48.552Z,17.85
2017-12-16T21:00:16.860Z,20.45
2017-12-16T21:02:44.310Z,18.52
2017-12-16T21:05:11.773Z,20.33
2017-12-16T21:07:39.245Z,19.45
2017-12-16T21:10:06.692Z,19.80
2017-12-16T21:12:34.165Z,19.65
2017-12-16T21:15:01.612Z,19.12
2017-12-16T21:17:29.064Z,20.92
2017-12-16T21:19:56.544Z,19.60
2017-12-16T21:22:24.000Z,20.27
2017-12-16T21:24:51.458Z,20.40
2017-12-16T21:27:18.941Z,20.62
2017-12-16T21:29:46.389Z,18.87
2017-12-16T21:32:13.853Z,21.15
2017-12-16T21:34:41.318Z,20.48
2017-12-16T21:37:08.815Z,20.27
2017-12-16T21:39:36.257Z,19.42
2017-12-16T21:42:03.717Z,20.67
2017-12-16T21:44:31.165Z,20.30
2017-12-16T21:46:58.628Z,19.95
2017-12-16T21:49:26.073Z,18.40
2017-12-16T21:51:53.568Z,18.92
2017-12-16T21:54:20.997Z,19.08
2017-12-16T21:56:48.449Z,18.85
2017-12-16T21:59:15.906Z,19.80
2017-12-16T22:01:43.416Z,18.15
2017-12-16T22:04:10.876Z,17.90
2017-12-16T22:06:38.337Z,17.30
2017-12-16T22:09:05.800Z,18.98
2017-12-16T22:11:33.257Z,18.25
2017-12-16T22:14:00.713Z,17.30
2017-12-16T22:16:28.185Z,17.90
2017-12-16T22:18:55.638Z,19.10
2017-12-16T22:21:23.097Z,16.73
2017-12-16T22:23:50.568Z,17.35
2017-12-16T22:26:18.026Z,16.35
2017-12-16T22:28:45.485Z,17.10
2017-12-16T22:31:12.947Z,15.48
2017-12-16T22:33:40.409Z,17.42
2017-12-16T22:36:07.877Z,15.10
2017-12-16T22:38:35.333Z,16.90
2017-12-16T22:41:02.789Z,16.05
2017-12-16T22:43:30.261Z,15.73
2017-12-16T22:45:57.708Z,14.60
2017-12-16T22:48:25.201Z,15.30
2017-12-16T22:50:52.712Z,15.13
2017-12-16T22:53:20.165Z,14.95
2017-12-16T22:55:47.617Z,15.65
2017-12-16T22:58:15.141Z,14.15
2017-12-16T23:00:44.477Z,15.73
2017-12-16T23:03:11.932Z,15.18
2017-12-16T23:05:39.381Z,16.23
2017-12-16T23:08:06.830Z,16.85
2017-12-16T23:10:34.251Z,16.35
2017-12-16T23:13:01.738Z,15.50
2017-12-16T23:15:29.380Z,17.37
2017-12-16T23:17:56.833Z,16.15
2017-12-16T23:20:24.285Z,16.33
2017-12-16T23:22:51.746Z,16.23
2017-12-16T23:25:19.218Z,16.95
2017-12-16T23:27:46.676Z,16.65
2017-12-16T23:30:14.135Z,17.17
2017-12-16T23:32:41.576Z,16.37
2017-12-16T23:35:09.027Z,16.48
2017-12-16T23:37:36.476Z,15.95
2017-12-16T23:40:03.929Z,14.55
2017-12-16T23:42:31.381Z,16.12
2017-12-16T23:44:58.828Z,13.93
2017-12-16T23:47:26.281Z,12.85
2017-12-16T23:49:53.741Z,15.20
2017-12-16T23:52:21.245Z,13.23
2017-12-16T23:54:48.702Z,12.52
2017-12-16T23:57:16.160Z,13.15
2017-12-16T23:59:43.609Z,13.62
